Time,TemperatureF,DewpointF,PressureIn,WindDirection,WindDirectionDegrees,WindSpeedMPH,WindSpeedGustMPH,Humidity,HourlyPrecipIn,Conditions,Clouds,dailyrainin,SoftwareType,DateUTC
2018-04-26 00:01:00,36.6,31.0,29.97,West,272,0.0,0.0,80,0.00,,,0.00,VWS V14.01,2018-04-26 04:01:00,
2018-04-26 00:06:00,36.4,31.1,29.97,West,272,0.0,0.0,81,0.00,,,0.00,VWS V14.01,2018-04-26 04:06:00,
2018-04-26 00:11:00,36.2,30.9,29.97,West,272,0.0,0.0,81,0.00,,,0.00,VWS V14.01,2018-04-26 04:11:00,
2018-04-26 00:16:00,36.0,30.8,29.97,West,272,0.0,0.0,81,0.00,,,0.00,VWS V14.01,2018-04-26 04:16:00,
2018-04-26 00:21:00,35.8,30.5,29.97,West,272,0.0,0.0,81,0.00,,,0.00,VWS V14.01,2018-04-26 04:21:00,
2018-04-26 00:26:00,35.6,30.4,29.97,West,272,0.0,0.0,81,0.00,,,0.00,VWS V14.01,2018-04-26 04:26:00,
2018-04-26 00:31:00,35.5,30.6,29.97,West,272,0.0,0.0,82,0.00,,,0.00,VWS V14.01,2018-04-26 04:31:00,
2018-04-26 00:36:00,35.3,30.4,29.97,West,272,0.0,0.0,82,0.00,,,0.00,VWS V14.01,2018-04-26 04:36:00,
2018-04-26 00:41:00,35.2,30.3,29.97,West,272,0.0,0.0,82,0.00,,,0.00,VWS V14.01,2018-04-26 04:41:00,
2018-04-26 00:46:00,35.0,30.1,29.97,West,272,0.0,0.0,82,0.00,,,0.00,VWS V14.01,2018-04-26 04:46:00,
2018-04-26 00:51:00,34.8,29.9,29.97,West,272,0.0,0.0,82,0.00,,,0.00,VWS V14.01,2018-04-26 04:51:00,
2018-04-26 00:56:00,34.7,29.8,29.97,West,272,0.0,0.0,82,0.00,,,0.00,VWS V14.01,2018-04-26 04:56:00,
2018-04-26 01:01:00,34.6,30.0,29.97,West,272,0.0,0.0,83,0.00,,,0.00,VWS V14.01,2018-04-26 05:01:00,
2018-04-26 01:06:00,34.5,29.9,29.97,West,272,0.0,0.0,83,0.00,,,0.00,VWS V14.01,2018-04-26 05:06:00,
2018-04-26 01:11:00,34.6,30.0,29.97,West,272,0.0,0.0,83,0.00,,,0.00,VWS V14.01,2018-04-26 05:11:00,
2018-04-26 01:16:00,34.6,30.3,29.97,West,272,0.0,0.0,84,0.00,,,0.00,VWS V14.01,2018-04-26 05:16:00,
2018-04-26 01:21:00,34.5,30.2,29.97,West,272,0.0,0.0,84,0.00,,,0.00,VWS V14.01,2018-04-26 05:21:00,
2018-04-26 01:26:00,34.4,30.1,29.97,West,272,0.0,0.0,84,0.00,,,0.00,VWS V14.01,2018-04-26 05:26:00,
2018-04-26 01:31:00,34.2,29.9,29.97,West,272,0.0,0.0,84,0.00,,,0.00,VWS V14.01,2018-04-26 05:31:00,
2018-04-26 01:36:00,34.1,29.8,29.96,West,272,0.0,0.0,84,0.00,,,0.00,VWS V14.01,2018-04-26 05:36:00,
2018-04-26 01:41:00,34.0,30.0,29.96,West,272,0.0,0.0,85,0.00,,,0.00,VWS V14.01,2018-04-26 05:41:00,
2018-04-26 01:46:00,33.9,29.9,29.96,West,272,0.0,0.0,85,0.00,,,0.00,VWS V14.01,2018-04-26 05:46:00,
2018-04-26 01:51:00,33.7,29.7,29.96,West,272,0.0,0.0,85,0.00,,,0.00,VWS V14.01,2018-04-26 05:51:00,
2018-04-26 01:56:00,33.5,29.5,29.96,West,272,0.0,0.0,85,0.00,,,0.00,VWS V14.01,2018-04-26 05:56:00,
2018-04-26 02:01:00,33.4,29.7,29.96,West,272,0.0,0.0,86,0.00,,,0.00,VWS V14.01,2018-04-26 06:01:00,
2018-04-26 02:06:00,33.2,29.5,29.96,West,272,0.0,0.0,86,0.00,,,0.00,VWS V14.01,2018-04-26 06:06:00,
2018-04-26 02:11:00,33.0,29.3,29.96,West,272,0.0,0.0,86,0.00,,,0.00,VWS V14.01,2018-04-26 06:11:00,
2018-04-26 02:16:00,32.8,29.1,29.96,West,272,0.0,0.0,86,0.00,,,0.00,VWS V14.01,2018-04-26 06:16:00,
2018-04-26 02:21:00,32.7,29.0,29.96,West,272,0.0,0.0,86,0.00,,,0.00,VWS V14.01,2018-04-26 06:21:00,
2018-04-26 02:26:00,32.5,28.8,29.96,West,272,0.0,0.0,86,0.00,,,0.00,VWS V14.01,2018-04-26 06:26:00,
2018-04-26 02:31:00,32.4,28.7,29.96,West,272,0.0,0.0,86,0.00,,,0.00,VWS V14.01,2018-04-26 06:31:00,
2018-04-26 02:36:00,32.3,28.9,29.96,West,272,0.0,0.0,87,0.00,,,0.00,VWS V14.01,2018-04-26 06:36:00,
2018-04-26 02:41:00,32.3,28.9,29.96,West,272,0.0,0.0,87,0.00,,,0.00,VWS V14.01,2018-04-26 06:41:00,
2018-04-26 02:46:00,32.2,28.8,29.95,West,272,0.0,0.0,87,0.00,,,0.00,VWS V14.01,2018-04-26 06:46:00,
2018-04-26 02:51:00,32.1,28.7,29.95,West,272,0.0,0.0,87,0.00,,,0.00,VWS V14.01,2018-04-26 06:51:00,
2018-04-26 02:56:00,32.1,29.0,29.95,West,272,0.0,0.0,88,0.00,,,0.00,VWS V14.01,2018-04-26 06:56:00,
2018-04-26 03:01:00,32.0,28.9,29.95,West,272,0.0,0.0,88,0.00,,,0.00,VWS V14.01,2018-04-26 07:01:00,
2018-04-26 03:06:00,32.1,29.0,29.95,West,272,0.0,0.0,88,0.00,,,0.00,VWS V14.01,2018-04-26 07:06:00,
2018-04-26 03:11:00,32.1,29.0,29.94,West,273,0.0,0.0,88,0.00,,,0.00,VWS V14.01,2018-04-26 07:11:00,
2018-04-26 03:16:00,32.1,29.2,29.94,West,273,0.0,0.0,89,0.00,,,0.00,VWS V14.01,2018-04-26 07:16:00,
2018-04-26 03:21:00,32.1,29.2,29.94,West,273,0.0,0.0,89,0.00,,,0.00,VWS V14.01,2018-04-26 07:21:00,
2018-04-26 03:26:00,32.0,29.1,29.94,West,273,0.0,0.0,89,0.00,,,0.00,VWS V14.01,2018-04-26 07:26:00,
2018-04-26 03:31:00,31.9,29.0,29.94,West,273,0.0,0.0,89,0.00,,,0.00,VWS V14.01,2018-04-26 07:31:00,
2018-04-26 03:36:00,31.7,28.8,29.94,West,273,0.0,0.0,89,0.00,,,0.00,VWS V14.01,2018-04-26 07:36:00,
2018-04-26 03:41:00,31.6,28.7,29.94,West,273,0.0,0.0,89,0.00,,,0.00,VWS V14.01,2018-04-26 07:41:00,
2018-04-26 03:46:00,31.5,28.6,29.94,West,273,0.0,0.0,89,0.00,,,0.00,VWS V14.01,2018-04-26 07:46:00,
2018-04-26 03:51:00,31.3,28.4,29.94,West,273,0.0,0.0,89,0.00,,,0.00,VWS V14.01,2018-04-26 07:51:00,
2018-04-26 03:56:00,31.3,28.7,29.94,West,273,0.0,0.0,90,0.00,,,0.00,VWS V14.01,2018-04-26 07:56:00,
2018-04-26 04:01:00,31.2,28.6,29.94,West,273,0.0,0.0,90,0.00,,,0.00,VWS V14.01,2018-04-26 08:01:00,
2018-04-26 04:06:00,31.3,28.7,29.94,West,273,0.0,0.0,90,0.00,,,0.00,VWS V14.01,2018-04-26 08:06:00,
2018-04-26 04:11:00,31.3,28.7,29.94,West,273,0.0,0.0,90,0.00,,,0.00,VWS V14.01,2018-04-26 08:11:00,
2018-04-26 04:16:00,31.2,28.6,29.94,West,273,0.0,0.0,90,0.00,,,0.00,VWS V14.01,2018-04-26 08:16:00,
2018-04-26 04:21:00,31.2,28.6,29.94,West,273,0.0,0.0,90,0.00,,,0.00,VWS V14.01,2018-04-26 08:21:00,
2018-04-26 04:26:00,31.1,28.5,29.94,West,273,0.0,0.0,90,0.00,,,0.00,VWS V14.01,2018-04-26 08:26:00,
2018-04-26 04:31:00,31.1,28.5,29.94,West,273,0.0,0.0,90,0.00,,,0.00,VWS V14.01,2018-04-26 08:31:00,
2018-04-26 04:36:00,31.1,28.5,29.94,West,273,0.0,0.0,90,0.00,,,0.00,VWS V14.01,2018-04-26 08:36:00,
2018-04-26 04:41:00,31.0,28.7,29.94,West,273,0.0,0.0,91,0.00,,,0.00,VWS V14.01,2018-04-26 08:41:00,
2018-04-26 04:46:00,30.9,28.6,29.94,West,273,0.0,0.0,91,0.00,,,0.00,VWS V14.01,2018-04-26 08:46:00,
2018-04-26 04:50:00,30.8,28.5,29.94,West,273,0.0,0.0,91,0.00,,,0.00,VWS V14.01,2018-04-26 08:50:00,
2018-04-26 04:55:00,30.7,28.4,29.94,West,273,0.0,0.0,91,0.00,,,0.00,VWS V14.01,2018-04-26 08:55:00,
2018-04-26 05:00:00,30.7,28.4,29.94,West,273,0.0,0.0,91,0.00,,,0.00,VWS V14.01,2018-04-26 09:00:00,
2018-04-26 05:05:00,30.6,28.3,29.94,West,273,0.0,0.0,91,0.00,,,0.00,VWS V14.01,2018-04-26 09:05:00,
2018-04-26 05:10:00,30.6,28.3,29.94,West,273,0.0,0.0,91,0.00,,,0.00,VWS V14.01,2018-04-26 09:10:00,
2018-04-26 05:15:00,30.5,28.2,29.94,West,273,0.0,0.0,91,0.00,,,0.00,VWS V14.01,2018-04-26 09:15:00,
2018-04-26 05:20:00,30.5,28.2,29.94,West,273,0.0,0.0,91,0.00,,,0.00,VWS V14.01,2018-04-26 09:20:00,
2018-04-26 05:25:00,30.4,28.1,29.94,West,273,0.0,0.0,91,0.00,,,0.00,VWS V14.01,2018-04-26 09:25:00,
2018-04-26 05:30:00,30.4,28.1,29.95,West,273,0.0,0.0,91,0.00,,,0.00,VWS V14.01,2018-04-26 09:30:00,
2018-04-26 05:35:00,30.3,28.0,29.95,West,273,0.0,0.0,91,0.00,,,0.00,VWS V14.01,2018-04-26 09:35:00,
2018-04-26 05:40:00,30.2,27.9,29.95,West,273,0.0,0.0,91,0.00,,,0.00,VWS V14.01,2018-04-26 09:40:00,
2018-04-26 05:45:00,30.2,28.2,29.94,West,273,0.0,0.0,92,0.00,,,0.00,VWS V14.01,2018-04-26 09:45:00,
2018-04-26 05:50:00,30.2,28.2,29.95,West,273,0.0,0.0,92,0.00,,,0.00,VWS V14.01,2018-04-26 09:50:00,
2018-04-26 05:55:00,30.1,28.1,29.95,West,273,0.0,0.0,92,0.00,,,0.00,VWS V14.01,2018-04-26 09:55:00,
2018-04-26 06:00:00,30.1,27.8,29.94,West,273,0.0,0.0,91,0.00,,,0.00,VWS V14.01,2018-04-26 10:00:00,
2018-04-26 06:05:00,30.0,28.0,29.94,West,273,0.0,0.0,92,0.00,,,0.00,VWS V14.01,2018-04-26 10:05:00,
2018-04-26 06:10:00,30.0,28.0,29.94,West,273,0.0,0.0,92,0.00,,,0.00,VWS V14.01,2018-04-26 10:10:00,
2018-04-26 06:15:00,30.0,28.0,29.94,West,273,0.0,0.0,92,0.00,,,0.00,VWS V14.01,2018-04-26 10:15:00,
2018-04-26 06:20:00,29.9,27.9,29.94,West,273,0.0,0.0,92,0.00,,,0.00,VWS V14.01,2018-04-26 10:20:00,
2018-04-26 06:25:00,29.8,27.8,29.94,West,273,0.0,0.0,92,0.00,,,0.00,VWS V14.01,2018-04-26 10:25:00,
2018-04-26 06:30:00,29.8,27.8,29.95,West,273,0.0,0.0,92,0.00,,,0.00,VWS V14.01,2018-04-26 10:30:00,
2018-04-26 06:35:00,29.8,27.8,29.95,West,273,0.0,0.0,92,0.00,,,0.00,VWS V14.01,2018-04-26 10:35:00,
2018-04-26 06:40:00,29.7,27.7,29.95,West,273,0.0,0.0,92,0.00,,,0.00,VWS V14.01,2018-04-26 10:40:00,
2018-04-26 06:45:00,29.6,27.6,29.95,West,273,0.0,0.0,92,0.00,,,0.00,VWS V14.01,2018-04-26 10:45:00,
2018-04-26 06:50:00,29.5,27.5,29.95,West,273,0.0,0.0,92,0.00,,,0.00,VWS V14.01,2018-04-26 10:50:00,
2018-04-26 06:55:00,29.5,27.5,29.95,West,273,0.0,0.0,92,0.00,,,0.00,VWS V14.01,2018-04-26 10:55:00,
2018-04-26 07:00:00,29.5,27.5,29.95,West,273,0.0,0.0,92,0.00,,,0.00,VWS V14.01,2018-04-26 11:00:00,
2018-04-26 07:05:00,29.5,27.5,29.95,West,273,0.0,0.0,92,0.00,,,0.00,VWS V14.01,2018-04-26 11:05:00,
2018-04-26 07:10:00,29.4,27.4,29.95,West,273,0.0,0.0,92,0.00,,,0.00,VWS V14.01,2018-04-26 11:10:00,
2018-04-26 07:15:00,29.4,27.4,29.95,West,273,0.0,0.0,92,0.00,,,0.00,VWS V14.01,2018-04-26 11:15:00,
2018-04-26 07:20:00,29.4,27.4,29.95,West,273,0.0,0.0,92,0.00,,,0.00,VWS V14.01,2018-04-26 11:20:00,
2018-04-26 07:25:00,29.4,27.6,29.95,West,273,0.0,0.0,93,0.00,,,0.00,VWS V14.01,2018-04-26 11:25:00,
2018-04-26 07:30:00,29.5,27.7,29.95,West,273,0.0,0.0,93,0.00,,,0.00,VWS V14.01,2018-04-26 11:30:00,
2018-04-26 07:35:00,29.6,27.8,29.96,West,273,0.0,0.0,93,0.00,,,0.00,VWS V14.01,2018-04-26 11:35:00,
2018-04-26 07:40:00,29.8,28.0,29.96,West,273,0.0,0.0,93,0.00,,,0.00,VWS V14.01,2018-04-26 11:40:00,
2018-04-26 07:45:00,29.9,28.1,29.96,West,273,0.0,0.0,93,0.00,,,0.00,VWS V14.01,2018-04-26 11:45:00,
2018-04-26 12:08:00,56.1,42.4,29.96,SW,225,5.0,6.0,60,0.00,,,0.00,VWS V14.01,2018-04-26 16:08:00,
2018-04-26 12:13:00,56.2,41.2,29.96,SSW,204,2.0,4.0,57,0.00,,,0.00,VWS V14.01,2018-04-26 16:13:00,
2018-04-26 12:18:00,56.1,40.6,29.95,SW,224,0.0,6.0,56,0.00,,,0.00,VWS V14.01,2018-04-26 16:18:00,
2018-04-26 12:23:00,56.0,41.0,29.95,SW,215,2.0,5.0,57,0.00,,,0.00,VWS V14.01,2018-04-26 16:23:00,
2018-04-26 12:28:00,56.2,41.6,29.95,South,184,3.0,5.0,58,0.00,,,0.00,VWS V14.01,2018-04-26 16:28:00,
2018-04-26 12:33:00,56.5,41.0,29.95,WSW,250,0.0,3.0,56,0.00,,,0.00,VWS V14.01,2018-04-26 16:33:00,
2018-04-26 12:38:00,56.7,39.8,29.95,East,92,0.0,5.0,53,0.00,,,0.00,VWS V14.01,2018-04-26 16:38:00,
2018-04-26 12:43:00,57.1,40.6,29.95,North,355,0.0,5.0,54,0.00,,,0.00,VWS V14.01,2018-04-26 16:43:00,
2018-04-26 12:48:00,57.5,40.5,29.95,SSW,209,6.0,6.0,53,0.00,,,0.00,VWS V14.01,2018-04-26 16:48:00,
2018-04-26 12:53:00,57.7,40.2,29.95,West,275,0.0,6.0,52,0.00,,,0.00,VWS V14.01,2018-04-26 16:53:00,
2018-04-26 12:58:00,58.1,41.1,29.95,SSW,199,1.0,6.0,53,0.00,,,0.00,VWS V14.01,2018-04-26 16:58:00,
2018-04-26 13:03:00,58.6,41.0,29.95,SSW,208,3.0,10.0,52,0.00,,,0.00,VWS V14.01,2018-04-26 17:03:00,
2018-04-26 13:08:00,58.3,39.2,29.95,SW,221,1.0,10.0,49,0.00,,,0.00,VWS V14.01,2018-04-26 17:08:00,
2018-04-26 13:13:00,58.2,40.7,29.95,West,267,0.0,8.0,52,0.00,,,0.00,VWS V14.01,2018-04-26 17:13:00,
2018-04-26 13:18:00,58.5,39.9,29.94,West,269,2.0,8.0,50,0.00,,,0.00,VWS V14.01,2018-04-26 17:18:00,
2018-04-26 13:23:00,59.0,40.9,29.94,West,275,0.0,7.0,51,0.00,,,0.00,VWS V14.01,2018-04-26 17:23:00,
2018-04-26 13:28:00,59.4,40.2,29.94,West,272,1.0,6.0,49,0.00,,,0.00,VWS V14.01,2018-04-26 17:28:00,
2018-04-26 13:33:00,59.6,39.9,29.94,SW,232,2.0,6.0,48,0.00,,,0.00,VWS V14.01,2018-04-26 17:33:00,
2018-04-26 13:38:00,59.4,39.2,29.94,NW,319,0.0,4.0,47,0.00,,,0.00,VWS V14.01,2018-04-26 17:38:00,
2018-04-26 13:43:00,59.5,40.9,29.94,SW,214,2.0,5.0,50,0.00,,,0.00,VWS V14.01,2018-04-26 17:43:00,
2018-04-26 13:48:00,59.8,41.7,29.94,West,280,1.0,5.0,51,0.00,,,0.00,VWS V14.01,2018-04-26 17:48:00,
2018-04-26 13:53:00,59.7,40.0,29.94,SW,217,0.0,7.0,48,0.00,,,0.00,VWS V14.01,2018-04-26 17:53:00,
2018-04-26 13:57:00,59.7,41.6,29.93,WNW,301,1.0,7.0,51,0.00,,,0.00,VWS V14.01,2018-04-26 17:57:00,
2018-04-26 14:02:00,60.2,41.0,29.93,WSW,254,2.0,4.0,49,0.00,,,0.00,VWS V14.01,2018-04-26 18:02:00,
2018-04-26 14:07:00,60.8,41.5,29.93,SE,146,1.0,7.0,49,0.00,,,0.00,VWS V14.01,2018-04-26 18:07:00,
2018-04-26 14:12:00,60.9,40.0,29.92,East,81,1.0,7.0,46,0.00,,,0.00,VWS V14.01,2018-04-26 18:12:00,
2018-04-26 14:17:00,61.2,40.8,29.92,SSE,149,0.0,3.0,47,0.00,,,0.00,VWS V14.01,2018-04-26 18:17:00,
2018-04-26 14:22:00,61.2,40.3,29.92,SSE,153,0.0,5.0,46,0.00,,,0.00,VWS V14.01,2018-04-26 18:22:00,
2018-04-26 14:27:00,61.1,39.0,29.92,WSW,243,3.0,5.0,44,0.00,,,0.00,VWS V14.01,2018-04-26 18:27:00,
2018-04-26 14:32:00,60.7,39.3,29.92,SW,224,4.0,7.0,45,0.00,,,0.00,VWS V14.01,2018-04-26 18:32:00,
2018-04-26 14:37:00,60.6,39.7,29.92,SSW,205,0.0,6.0,46,0.00,,,0.00,VWS V14.01,2018-04-26 18:37:00,
2018-04-26 14:42:00,61.0,39.5,29.92,WSW,241,0.0,4.0,45,0.00,,,0.00,VWS V14.01,2018-04-26 18:42:00,
2018-04-26 14:47:00,61.2,39.1,29.91,West,276,0.0,3.0,44,0.00,,,0.00,VWS V14.01,2018-04-26 18:47:00,
2018-04-26 14:52:00,61.6,38.9,29.91,North,5,0.0,2.0,43,0.00,,,0.00,VWS V14.01,2018-04-26 18:52:00,
2018-04-26 14:57:00,61.7,39.0,29.91,NNW,345,0.0,3.0,43,0.00,,,0.00,VWS V14.01,2018-04-26 18:57:00,
2018-04-26 15:02:00,61.9,39.8,29.91,NNW,344,0.0,3.0,44,0.00,,,0.00,VWS V14.01,2018-04-26 19:02:00,
2018-04-26 15:07:00,62.3,41.3,29.91,SW,216,0.0,5.0,46,0.00,,,0.00,VWS V14.01,2018-04-26 19:07:00,
2018-04-26 15:11:00,62.5,39.1,29.90,SW,216,0.0,3.0,42,0.00,,,0.00,VWS V14.01,2018-04-26 19:11:00,
2018-04-26 15:16:00,63.2,41.0,29.90,West,267,0.0,4.0,44,0.00,,,0.00,VWS V14.01,2018-04-26 19:16:00,
2018-04-26 15:21:00,63.4,38.7,29.90,WSW,246,6.0,6.0,40,0.00,,,0.00,VWS V14.01,2018-04-26 19:21:00,
2018-04-26 15:26:00,62.9,37.6,29.90,SW,229,0.0,6.0,39,0.00,,,0.00,VWS V14.01,2018-04-26 19:26:00,
2018-04-26 15:31:00,62.8,40.0,29.90,WNW,288,2.0,5.0,43,0.00,,,0.00,VWS V14.01,2018-04-26 19:31:00,
2018-04-26 15:36:00,63.1,38.4,29.89,SW,228,2.0,6.0,40,0.00,,,0.00,VWS V14.01,2018-04-26 19:36:00,
2018-04-26 15:41:00,63.4,39.9,29.89,NNW,345,1.0,6.0,42,0.00,,,0.00,VWS V14.01,2018-04-26 19:41:00,
2018-04-26 15:46:00,63.5,38.8,29.89,NNE,24,2.0,6.0,40,0.00,,,0.00,VWS V14.01,2018-04-26 19:46:00,
2018-04-26 15:51:00,63.5,38.8,29.89,NNE,23,2.0,3.0,40,0.00,,,0.00,VWS V14.01,2018-04-26 19:51:00,
2018-04-26 15:56:00,63.6,37.5,29.89,NNW,348,0.0,3.0,38,0.00,,,0.00,VWS V14.01,2018-04-26 19:56:00,
2018-04-26 16:01:00,63.8,41.5,29.89,North,355,3.0,4.0,44,0.00,,,0.00,VWS V14.01,2018-04-26 20:01:00,
2018-04-26 16:04:00,63.9,42.7,29.89,NNE,12,0.0,4.0,46,0.00,,,0.00,VWS V14.01,2018-04-26 20:04:00,
2018-04-26 16:06:00,63.9,43.3,29.89,WNW,297,2.0,6.0,47,0.00,,,0.00,VWS V14.01,2018-04-26 20:06:00,
2018-04-26 16:11:00,63.9,43.3,29.88,WNW,301,2.0,6.0,47,0.00,,,0.00,VWS V14.01,2018-04-26 20:11:00,
2018-04-26 16:16:00,63.9,42.7,29.88,WNW,283,5.0,5.0,46,0.00,,,0.00,VWS V14.01,2018-04-26 20:16:00,
2018-04-26 16:21:00,63.8,40.9,29.88,NNW,331,0.0,5.0,43,0.00,,,0.00,VWS V14.01,2018-04-26 20:21:00,
2018-04-26 16:26:00,63.9,42.2,29.88,NNW,340,0.0,5.0,45,0.00,,,0.00,VWS V14.01,2018-04-26 20:26:00,
2018-04-26 16:31:00,63.8,43.2,29.88,WNW,288,4.0,5.0,47,0.00,,,0.00,VWS V14.01,2018-04-26 20:31:00,
2018-04-26 16:36:00,63.7,43.1,29.88,NW,313,1.0,5.0,47,0.00,,,0.00,VWS V14.01,2018-04-26 20:36:00,
2018-04-26 16:41:00,63.6,43.0,29.88,NNW,344,0.0,8.0,47,0.00,,,0.00,VWS V14.01,2018-04-26 20:41:00,
2018-04-26 16:46:00,63.5,42.9,29.88,WNW,296,8.0,8.0,47,0.00,,,0.00,VWS V14.01,2018-04-26 20:46:00,
2018-04-26 16:51:00,63.4,42.3,29.88,North,349,2.0,8.0,46,0.00,,,0.00,VWS V14.01,2018-04-26 20:51:00,
2018-04-26 16:56:00,63.0,41.9,29.88,NW,326,2.0,6.0,46,0.00,,,0.00,VWS V14.01,2018-04-26 20:56:00,
2018-04-26 17:01:00,62.9,41.8,29.88,North,355,1.0,6.0,46,0.00,,,0.00,VWS V14.01,2018-04-26 21:01:00,
2018-04-26 17:06:00,62.8,41.7,29.88,NNW,333,2.0,6.0,46,0.00,,,0.00,VWS V14.01,2018-04-26 21:06:00,
2018-04-26 17:08:00,62.7,41.6,29.88,NNW,347,0.0,6.0,46,0.00,,,0.00,VWS V14.01,2018-04-26 21:08:00,
2018-04-26 17:13:00,62.5,41.5,29.88,North,5,0.0,5.0,46,0.00,,,0.00,VWS V14.01,2018-04-26 21:13:00,
2018-04-26 17:18:00,62.3,41.3,29.88,WNW,286,0.0,6.0,46,0.00,,,0.00,VWS V14.01,2018-04-26 21:18:00,
2018-04-26 17:23:00,62.4,41.9,29.88,NNW,327,3.0,6.0,47,0.00,,,0.00,VWS V14.01,2018-04-26 21:23:00,